Time;durP1;ratioP1;P1;durP2;ratioP2;P2;SDS_P1;SDS_P2;PMS_P1;PMS_P2;Temp;Humidity;BMP_temperature;BMP_pressure;BME280_temperature;BME280_humidity;BME280_pressure;Samples;Min_cycle;Max_cycle;Signal;HPM_P1;HPM_P2
2021/05/07 01:59:54;;;;;;;772.30;39.35;;;5.60;99.90;;;;;;4850575;29;20438;-94
2021/05/07 02:39:01;;;;;;;33.28;13.85;;;5.70;99.90;;;;;;4912639;29;20453;-93
2021/05/07 02:46:47;;;;;;;52.42;17.60;;;5.70;99.90;;;;;;4940358;28;20423;-94
2021/05/07 03:16:17;;;;;;;51.97;13.10;;;5.60;99.90;;;;;;4864272;29;20430;-93
2021/05/07 03:23:48;;;;;;;20.43;7.50;;;5.70;99.90;;;;;;4775062;29;20480;-92
2021/05/07 03:27:27;;;;;;;21.55;7.90;;;5.70;99.90;;;;;;4779618;29;20474;-93
2021/05/07 04:17:28;;;;;;;5.80;3.80;;;5.70;99.90;;;;;;5269177;23;20530;-96
2021/05/07 04:21:04;;;;;;;10.18;4.75;;;5.70;99.90;;;;;;4936426;29;20491;-94
2021/05/07 04:23:40;;;;;;;4.25;2.67;;;5.70;99.90;;;;;;4935662;29;20543;-96
2021/05/07 04:26:36;;;;;;;5.15;3.15;;;5.70;99.90;;;;;;4950652;28;20478;-96
2021/05/07 04:31:50;;;;;;;6.83;2.63;;;5.70;99.90;;;;;;5005014;23;20473;-94
2021/05/07 04:34:52;;;;;;;3.83;2.87;;;5.60;99.90;;;;;;4950388;29;20446;-93
2021/05/07 04:37:25;;;;;;;5.40;3.85;;;5.70;99.90;;;;;;4926950;29;20459;-95
2021/05/07 04:46:30;;;;;;;8.90;4.35;;;5.50;99.90;;;;;;4018186;23;20637;-94
2021/05/07 04:49:26;;;;;;;5.80;4.10;;;5.60;99.90;;;;;;4874658;29;20525;-94
2021/05/07 05:03:06;;;;;;;5.75;4.15;;;5.60;99.90;;;;;;4916275;29;20443;-96
2021/05/07 05:05:33;;;;;;;8.68;4.00;;;5.60;99.90;;;;;;4875026;29;20431;-96
2021/05/07 05:08:31;;;;;;;7.53;4.38;;;5.50;99.90;;;;;;4861524;29;20960;-93
2021/05/07 05:11:22;;;;;;;4.63;4.13;;;5.50;99.90;;;;;;4877086;29;20455;-96
2021/05/07 05:14:30;;;;;;;5.90;4.03;;;5.60;99.90;;;;;;4881104;29;20412;-94
2021/05/07 05:17:42;;;;;;;4.73;2.70;;;5.60;99.90;;;;;;4875529;29;20439;-94
2021/05/07 05:20:12;;;;;;;5.40;3.33;;;5.60;99.90;;;;;;4871483;29;20453;-96
2021/05/07 05:23:04;;;;;;;6.13;3.58;;;5.60;99.90;;;;;;4874330;29;20428;-96
2021/05/07 05:25:34;;;;;;;4.43;3.63;;;5.60;99.90;;;;;;4873032;29;20513;-93
2021/05/07 05:28:36;;;;;;;5.03;3.80;;;5.70;99.90;;;;;;4871102;29;20426;-96
2021/05/07 05:31:03;;;;;;;4.60;3.30;;;5.70;99.90;;;;;;4857545;29;20438;-94
2021/05/07 05:33:32;;;;;;;5.38;2.78;;;5.70;99.90;;;;;;4857750;29;20458;-96
2021/05/07 05:36:05;;;;;;;2.92;2.28;;;5.80;99.90;;;;;;4858615;29;20468;-95
2021/05/07 05:38:36;;;;;;;2.50;1.80;;;5.80;99.90;;;;;;4871200;29;20511;-96
2021/05/07 05:41:04;;;;;;;2.53;1.90;;;5.90;99.90;;;;;;4868763;29;20478;-95
2021/05/07 05:43:34;;;;;;;2.58;2.38;;;5.90;99.90;;;;;;4870169;29;20887;-95
2021/05/07 05:46:01;;;;;;;3.65;2.08;;;5.90;99.90;;;;;;4871794;29;20438;-95
2021/05/07 05:48:29;;;;;;;3.10;2.07;;;5.90;99.90;;;;;;4880444;29;20435;-93
2021/05/07 05:50:57;;;;;;;1.98;1.52;;;5.80;99.90;;;;;;4877031;29;20434;-96
2021/05/07 05:53:26;;;;;;;3.08;2.10;;;5.90;99.90;;;;;;4890554;29;20437;-96
2021/05/07 05:55:55;;;;;;;2.33;1.90;;;5.90;99.90;;;;;;4891175;29;20498;-96
2021/05/07 05:58:26;;;;;;;3.97;1.98;;;5.90;99.90;;;;;;4889239;29;20431;-96
2021/05/07 06:00:54;;;;;;;2.55;1.92;;;5.90;99.90;;;;;;4886783;29;20513;-96
2021/05/07 06:03:21;;;;;;;2.90;2.00;;;5.80;99.90;;;;;;4872301;29;20891;-96
2021/05/07 06:05:48;;;;;;;2.47;2.10;;;5.80;99.90;;;;;;4876403;29;20427;-95
2021/05/07 06:08:14;;;;;;;3.30;2.00;;;5.80;99.90;;;;;;4906004;29;20499;-93
2021/05/07 06:10:41;;;;;;;2.42;1.73;;;5.90;99.90;;;;;;4905874;29;20446;-96
2021/05/07 06:13:09;;;;;;;2.28;1.92;;;5.80;99.90;;;;;;4901887;29;20506;-96
2021/05/07 06:15:36;;;;;;;2.58;2.13;;;5.90;99.90;;;;;;4897315;29;20506;-94
2021/05/07 06:18:03;;;;;;;3.20;2.00;;;5.90;99.90;;;;;;4893117;29;20454;-96
2021/05/07 06:20:38;;;;;;;3.53;2.50;;;5.80;99.90;;;;;;4877146;29;20998;-96
2021/05/07 06:23:06;;;;;;;3.30;2.33;;;5.80;99.90;;;;;;4910851;29;20430;-95
2021/05/07 06:25:33;;;;;;;5.05;2.60;;;5.90;99.90;;;;;;4891972;29;20461;-96
2021/05/07 06:28:00;;;;;;;2.85;2.50;;;5.90;99.90;;;;;;4893461;29;20815;-93
2021/05/07 06:30:27;;;;;;;3.20;2.30;;;6.00;99.90;;;;;;4874988;29;20486;-96
2021/05/07 06:32:55;;;;;;;3.10;2.43;;;6.00;99.90;;;;;;4881270;29;20466;-93
2021/05/07 06:35:29;;;;;;;4.63;2.80;;;5.80;99.90;;;;;;4895985;29;20443;-95
2021/05/07 06:37:58;;;;;;;3.08;2.53;;;5.90;99.90;;;;;;4896014;29;20513;-96
2021/05/07 06:40:27;;;;;;;2.72;2.50;;;5.90;99.90;;;;;;4876729;29;20463;-96
2021/05/07 06:42:56;;;;;;;3.92;2.67;;;5.90;99.90;;;;;;4898848;29;20907;-95
2021/05/07 06:45:26;;;;;;;4.78;2.90;;;6.00;99.90;;;;;;4883908;29;20431;-96
2021/05/07 06:47:55;;;;;;;4.43;2.90;;;5.90;99.90;;;;;;4910811;29;20427;-96
2021/05/07 06:50:29;;;;;;;4.23;2.90;;;5.90;99.90;;;;;;4881836;29;20506;-92
2021/05/07 06:52:58;;;;;;;3.08;2.78;;;5.90;99.90;;;;;;4884767;29;20447;-96
2021/05/07 06:55:42;;;;;;;3.53;3.15;;;5.90;99.90;;;;;;4899487;29;20477;-92
2021/05/07 06:58:18;;;;;;;5.03;3.58;;;5.80;99.90;;;;;;4895606;29;20438;-96
2021/05/07 07:01:06;;;;;;;5.10;3.70;;;5.80;99.90;;;;;;4882327;29;20891;-96
2021/05/07 07:03:35;;;;;;;5.20;3.97;;;5.80;99.90;;;;;;4895284;29;20439;-96
2021/05/07 07:06:17;;;;;;;4.15;3.47;;;5.70;99.90;;;;;;4896473;29;20462;-95
2021/05/07 07:08:52;;;;;;;5.60;4.20;;;5.70;99.90;;;;;;4884733;29;20445;-93
2021/05/07 07:11:49;;;;;;;5.07;4.43;;;5.80;99.90;;;;;;4884079;29;20447;-93
2021/05/07 07:14:22;;;;;;;5.28;4.30;;;5.60;99.90;;;;;;4892586;29;20469;-93
2021/05/07 07:16:53;;;;;;;7.40;5.65;;;5.60;99.90;;;;;;4884096;29;20435;-93
2021/05/07 07:20:00;;;;;;;5.87;5.10;;;5.60;99.90;;;;;;4899551;29;20440;-94
2021/05/07 07:23:20;;;;;;;7.72;6.40;;;5.60;99.90;;;;;;4895127;29;20428;-94
2021/05/07 07:30:03;;;;;;;8.27;6.25;;;5.50;99.90;;;;;;4808182;29;20482;-95
2021/05/07 07:33:10;;;;;;;8.47;5.60;;;5.50;99.90;;;;;;4805112;29;20512;-96
2021/05/07 08:42:12;;;;;;;2.20;1.70;;;6.20;99.90;;;;;;5624634;23;20398;-96
2021/05/07 08:51:11;;;;;;;2.05;1.77;;;6.40;99.90;;;;;;4933867;29;20425;-95
2021/05/07 08:54:55;;;;;;;5.22;2.80;;;6.30;99.90;;;;;;4920343;29;20443;-94
2021/05/07 08:58:20;;;;;;;2.33;2.08;;;6.20;99.90;;;;;;4917219;29;20441;-95
2021/05/07 09:01:59;;;;;;;1.75;1.60;;;6.10;99.90;;;;;;4922860;29;20437;-96
2021/05/07 09:04:59;;;;;;;1.90;1.70;;;6.20;99.90;;;;;;4918222;29;20444;-96
2021/05/07 09:07:56;;;;;;;1.02;0.93;;;6.30;99.90;;;;;;4892965;29;20511;-96
2021/05/07 09:11:19;;;;;;;1.10;1.00;;;6.20;99.90;;;;;;4880765;29;20425;-96
2021/05/07 09:14:05;;;;;;;2.10;1.00;;;6.10;99.90;;;;;;4878599;29;20515;-94
2021/05/07 09:21:09;;;;;;;0.80;0.80;;;5.80;99.90;;;;;;5063984;27;20743;-96
2021/05/07 09:24:24;;;;;;;1.63;1.13;;;5.60;99.90;;;;;;5063677;27;20427;-96
2021/05/07 09:27:39;;;;;;;2.40;1.40;;;5.50;99.90;;;;;;5040302;27;20424;-94
2021/05/07 09:34:06;;;;;;;1.80;1.70;;;5.60;99.90;;;;;;5037418;27;21063;-96
2021/05/07 09:37:34;;;;;;;2.20;2.00;;;5.70;99.90;;;;;;5027348;28;20443;-93
2021/05/07 09:40:19;;;;;;;2.55;2.10;;;5.60;99.90;;;;;;4989380;28;20436;-96
2021/05/07 09:43:35;;;;;;;2.55;1.88;;;5.80;99.90;;;;;;4968633;28;20523;-96
2021/05/07 09:46:13;;;;;;;2.65;1.65;;;5.70;99.90;;;;;;4992391;28;20444;-94
2021/05/07 09:49:00;;;;;;;2.13;1.85;;;5.80;99.90;;;;;;4975278;28;20445;-93
2021/05/07 09:52:13;;;;;;;2.40;1.80;;;5.90;99.90;;;;;;5068596;28;20533;-94
2021/05/07 09:55:07;;;;;;;1.90;1.30;;;5.80;99.90;;;;;;5067919;28;20423;-96
2021/05/07 09:58:22;;;;;;;1.40;1.30;;;5.80;99.90;;;;;;5029434;28;20425;-96
2021/05/07 10:01:01;;;;;;;1.73;1.58;;;6.20;99.90;;;;;;5059561;28;20830;-93
2021/05/07 10:04:19;;;;;;;2.05;1.70;;;6.30;99.90;;;;;;5005606;28;20406;-95
2021/05/07 10:07:01;;;;;;;2.08;1.42;;;6.80;99.90;;;;;;5011299;28;20433;-96
2021/05/07 10:10:01;;;;;;;1.27;1.13;;;7.30;99.90;;;;;;4966139;28;20492;-93
2021/05/07 10:13:18;;;;;;;1.20;1.10;;;7.40;99.90;;;;;;4973378;28;20421;-94
2021/05/07 10:16:06;;;;;;;1.10;1.00;;;7.40;99.90;;;;;;4980736;28;20432;-94
2021/05/07 10:18:48;;;;;;;1.15;0.90;;;7.50;99.90;;;;;;4985933;28;20425;-96
2021/05/07 10:21:15;;;;;;;0.70;0.70;;;7.60;99.90;;;;;;4983520;28;20403;-96
2021/05/07 10:24:16;;;;;;;0.63;0.63;;;7.60;99.90;;;;;;5001155;28;20828;-96
2021/05/07 10:27:31;;;;;;;1.13;0.80;;;7.60;99.90;;;;;;4972475;28;20435;-94
2021/05/07 10:31:29;;;;;;;1.02;0.80;;;7.30;99.90;;;;;;4984681;28;20426;-94
2021/05/07 10:58:37;;;;;;;0.70;0.70;;;7.90;99.90;;;;;;5028640;28;20424;-96
2021/05/07 11:01:31;;;;;;;0.73;0.70;;;7.90;99.90;;;;;;5003722;28;20420;-95
2021/05/07 11:04:16;;;;;;;0.65;0.57;;;7.80;99.90;;;;;;5015211;28;20413;-95
2021/05/07 11:06:50;;;;;;;3.75;0.70;;;7.90;99.90;;;;;;5012209;28;20433;-96
2021/05/07 11:09:27;;;;;;;1.02;0.70;;;7.70;99.90;;;;;;4994546;28;20405;-96
2021/05/07 11:12:17;;;;;;;1.07;0.83;;;7.60;99.90;;;;;;5009787;28;20433;-96
2021/05/07 11:18:47;;;;;;;1.38;1.00;;;7.30;99.90;;;;;;5005964;28;20457;-96
2021/05/07 11:21:24;;;;;;;1.10;0.70;;;7.40;99.90;;;;;;4996326;28;20438;-96
2021/05/07 11:32:34;;;;;;;0.98;0.60;;;8.60;99.90;;;;;;5475831;22;20449;-96
2021/05/07 11:52:46;;;;;;;0.50;0.50;;;10.20;99.90;;;;;;5409226;22;20419;-93
2021/05/07 12:10:42;;;;;;;0.68;0.60;;;8.40;99.90;;;;;;4976045;28;20481;-96
2021/05/07 12:13:34;;;;;;;1.40;0.60;;;7.90;99.90;;;;;;4967344;29;20463;-93
2021/05/07 12:16:05;;;;;;;0.85;0.55;;;8.00;99.90;;;;;;4969898;29;20450;-96
2021/05/07 12:18:37;;;;;;;1.10;0.77;;;8.10;99.90;;;;;;4954795;29;20418;-96
2021/05/07 12:21:25;;;;;;;0.70;0.60;;;8.30;99.90;;;;;;4972832;28;20422;-96
2021/05/07 12:24:13;;;;;;;1.00;0.60;;;8.10;99.90;;;;;;4972487;28;20422;-94
2021/05/07 12:26:50;;;;;;;1.97;0.63;;;7.70;99.90;;;;;;4949999;29;20497;-93
2021/05/07 12:29:21;;;;;;;1.03;0.70;;;7.80;99.90;;;;;;4947129;29;20426;-93
2021/05/07 12:32:28;;;;;;;0.65;0.60;;;7.90;99.90;;;;;;4947228;29;20432;-93
2021/05/07 12:35:06;;;;;;;0.98;0.70;;;7.90;99.90;;;;;;4949918;29;20412;-94
2021/05/07 12:38:35;;;;;;;0.60;0.60;;;7.60;99.90;;;;;;4943727;29;20431;-94
2021/05/07 12:41:49;;;;;;;0.80;0.80;;;7.30;99.90;;;;;;4947487;29;20451;-96
2021/05/07 12:44:30;;;;;;;1.27;1.10;;;7.40;99.90;;;;;;4953487;28;20451;-96
2021/05/07 12:51:30;;;;;;;1.15;0.90;;;9.60;99.90;;;;;;4950900;28;20462;-93
2021/05/07 12:54:33;;;;;;;0.60;0.60;;;9.70;99.90;;;;;;4951539;28;20522;-96
2021/05/07 12:57:56;;;;;;;0.70;0.70;;;10.50;99.90;;;;;;4952087;28;20431;-96
2021/05/07 13:01:40;;;;;;;1.70;0.70;;;9.90;99.90;;;;;;4948987;28;20427;-95
2021/05/07 13:04:53;;;;;;;1.10;0.80;;;9.60;99.90;;;;;;4916865;29;21058;-93
2021/05/07 13:08:03;;;;;;;0.68;0.68;;;9.20;99.90;;;;;;4933563;29;20420;-96
2021/05/07 13:17:54;;;;;;;0.90;0.80;;;8.30;99.90;;;;;;4947988;29;20426;-94
2021/05/07 13:21:02;;;;;;;1.00;0.90;;;7.90;99.90;;;;;;4924490;29;20439;-96
2021/05/07 13:27:35;;;;;;;2.05;0.88;;;7.50;99.90;;;;;;5198188;22;20427;-96
2021/05/07 13:33:21;;;;;;;2.97;1.20;;;7.10;99.90;;;;;;5248931;22;20435;-96
2021/05/07 13:36:27;;;;;;;1.30;1.00;;;7.00;99.90;;;;;;5055026;28;20518;-92
2021/05/07 13:40:10;;;;;;;2.40;1.30;;;6.50;99.90;;;;;;5054412;28;20426;-96
2021/05/07 13:50:55;;;;;;;1.15;1.05;;;4.30;99.90;;;;;;5073856;28;20412;-96
2021/05/07 14:10:29;;;;;;;8.50;6.78;;;4.00;99.90;;;;;;4985499;28;20464;-93
2021/05/07 14:19:36;;;;;;;3.85;3.15;;;5.70;99.90;;;;;;5512670;22;20489;-94
2021/05/07 14:23:30;;;;;;;3.83;3.08;;;6.10;99.90;;;;;;5029463;28;20431;-95
2021/05/07 14:27:08;;;;;;;3.58;3.10;;;6.50;99.90;;;;;;5017111;28;20440;-94
2021/05/07 14:30:36;;;;;;;3.35;2.97;;;7.30;99.90;;;;;;4990630;28;20439;-95
2021/05/07 14:33:42;;;;;;;4.10;2.85;;;8.20;99.90;;;;;;4957412;28;20437;-94
2021/05/07 14:37:02;;;;;;;4.63;2.90;;;8.50;99.90;;;;;;4909679;29;20469;-95
2021/05/07 14:40:28;;;;;;;3.42;2.70;;;8.70;99.90;;;;;;4914615;29;20495;-96
2021/05/07 14:43:23;;;;;;;4.25;3.00;;;8.10;99.90;;;;;;4916714;29;20967;-93
2021/05/07 14:46:11;;;;;;;5.47;3.17;;;8.10;99.90;;;;;;4927522;29;20442;-93
2021/05/07 14:49:53;;;;;;;4.35;3.20;;;7.50;99.90;;;;;;4910300;29;20419;-95
2021/05/07 14:53:21;;;;;;;4.45;2.75;;;6.90;99.90;;;;;;4904571;29;20427;-94
2021/05/07 14:56:16;;;;;;;6.03;3.47;;;6.30;99.90;;;;;;4893249;29;20837;-95
2021/05/07 14:59:36;;;;;;;4.57;2.88;;;5.80;99.90;;;;;;4882038;29;20404;-96
2021/05/07 15:02:40;;;;;;;2.40;1.83;;;5.30;99.90;;;;;;4880188;29;20986;-95
2021/05/07 15:05:39;;;;;;;2.50;1.83;;;4.50;99.90;;;;;;4883797;29;20508;-95
2021/05/07 15:08:46;;;;;;;5.60;2.05;;;4.00;99.90;;;;;;4909277;29;20562;-94
2021/05/07 15:11:29;;;;;;;3.92;2.72;;;3.40;99.90;;;;;;4903313;29;20477;-96
2021/05/07 15:20:34;;;;;;;3.88;2.33;;;4.10;99.90;;;;;;4886178;29;20453;-95
2021/05/07 15:24:08;;;;;;;5.78;2.65;;;5.40;99.90;;;;;;4914261;29;20422;-95
2021/05/07 15:27:30;;;;;;;4.30;3.00;;;5.30;99.90;;;;;;4905584;29;20482;-96
2021/05/07 15:31:34;;;;;;;3.67;2.77;;;4.60;99.90;;;;;;4912866;29;20435;-96
2021/05/07 16:24:47;;;;;;;4.53;2.87;;;8.30;99.90;;;;;;4945124;28;20442;-93
2021/05/07 16:53:07;;;;;;;6.68;3.92;;;5.20;99.90;;;;;;4980288;22;20431;-96
2021/05/07 17:04:08;;;;;;;5.70;4.03;;;5.20;99.90;;;;;;4992861;28;20428;-96
2021/05/07 17:07:31;;;;;;;4.97;2.75;;;5.20;99.90;;;;;;4975545;28;20412;-96
2021/05/07 17:10:34;;;;;;;5.65;2.92;;;5.50;99.90;;;;;;4980995;28;20468;-96
2021/05/07 17:19:52;;;;;;;5.18;2.53;;;6.20;99.90;;;;;;5034052;28;20380;-96
2021/05/07 17:23:27;;;;;;;5.35;3.65;;;6.20;99.90;;;;;;5027584;28;20435;-96
2021/05/07 17:26:55;;;;;;;5.53;3.30;;;6.30;99.90;;;;;;4937158;29;20412;-96
